Accueil
METAR-TAF:

METAR-TAF

Aéroports :

Aéroport d'Ibiza

Ibiza, Espagne

latitude: 38-52N, longitude: 001-23E, altitude: 7 m

Observation

Le bulletin a été fait il y a 35 minutes, à 10:30 UTC
Vent 9 kt de ouest/nord-ouest, variant entre sud-ouest et nord/nord-ouest
Température 24°C
Humidité 41%
Pression 1011 hPa
Visibilité 10 km ou plus
Quelques nuages à une hauteur de 3000 ft

METAR: LEIB 051030Z 30009KT 230V340 9999 FEW030 24/10 Q1011 NOSIG

Heure: 13:05 (11:05 UTC)

Prévision

Le bulletin a été fait il y a 3 heures et 5 minutes, à 08:00 UTC
Prévision valable du 05 à 09 UTC au 06 à 09 UTC
Vent 10 kt de ouest
Visibilité 10 km ou plus
Quelques nuages à une hauteur de 3000 ft
Evoluant progressivement
du 05 à 13 UTC au 05 à 15 UTC
Vent 12 kt de sud-ouest

TAF: LEIB 050800Z 0509/0609 28010KT 9999 FEW030 TX26/0512Z TN18/0606Z BECMG 0513/0515 22012KT

Observations et prévisions météorologiques de plus de 4000 aéroports (messages METAR et TAF).

Les stations disponibles sont représentées par des disques jaunes et rouges sur la carte.

Passer la souris dessus pour voir le nom de la station.

Cliquer dessus pour voir les observations et prévisions météorologiques.

Pour changer de carte: cliquez sur les boutons verts avec une croix noire pour zoomer, sur le bouton vert avec un tiret pour effectuer un zoom arrière, ou sur les flèches vertes pour les cartes adjacentes.


METAR-TAF: